sensor_id;sensor_type;location;lat;lon;timestamp;pressure;altitude;pressure_sealevel;temperature;humidity
43364;BME280;40636;52.424;-1.948;2022-07-01T00:00:51;99660.44;;;12.75;100.00
43364;BME280;40636;52.424;-1.948;2022-07-01T00:03:18;99659.06;;;12.73;100.00
43364;BME280;40636;52.424;-1.948;2022-07-01T00:05:45;99663.75;;;12.77;100.00
43364;BME280;40636;52.424;-1.948;2022-07-01T00:08:12;99661.81;;;12.78;100.00
43364;BME280;40636;52.424;-1.948;2022-07-01T00:10:39;99658.25;;;12.77;100.00
43364;BME280;40636;52.424;-1.948;2022-07-01T00:13:06;99663.19;;;12.75;100.00
43364;BME280;40636;52.424;-1.948;2022-07-01T00:15:33;99660.19;;;12.77;100.00
43364;BME280;40636;52.424;-1.948;2022-07-01T00:18:00;99661.25;;;12.76;100.00
43364;BME280;40636;52.424;-1.948;2022-07-01T00:20:27;99662.88;;;12.66;100.00
43364;BME280;40636;52.424;-1.948;2022-07-01T00:22:54;99661.81;;;12.67;100.00
43364;BME280;40636;52.424;-1.948;2022-07-01T00:25:21;99665.09;;;12.69;100.00
43364;BME280;40636;52.424;-1.948;2022-07-01T00:27:48;99655.50;;;12.72;100.00
43364;BME280;40636;52.424;-1.948;2022-07-01T00:30:15;99659.59;;;12.75;100.00
43364;BME280;40636;52.424;-1.948;2022-07-01T00:32:42;99653.56;;;12.73;100.00
43364;BME280;40636;52.424;-1.948;2022-07-01T00:35:09;99657.38;;;12.72;100.00
43364;BME280;40636;52.424;-1.948;2022-07-01T00:37:38;99661.25;;;12.76;100.00
43364;BME280;40636;52.424;-1.948;2022-07-01T00:40:06;99653.00;;;12.76;100.00
43364;BME280;40636;52.424;-1.948;2022-07-01T00:42:33;99656.84;;;12.80;100.00
43364;BME280;40636;52.424;-1.948;2022-07-01T00:45:00;99659.31;;;12.71;100.00
43364;BME280;40636;52.424;-1.948;2022-07-01T00:47:27;99661.00;;;12.72;100.00
43364;BME280;40636;52.424;-1.948;2022-07-01T00:49:54;99661.53;;;12.79;100.00
43364;BME280;40636;52.424;-1.948;2022-07-01T00:52:21;99665.94;;;12.75;100.00
43364;BME280;40636;52.424;-1.948;2022-07-01T00:54:53;99665.69;;;12.82;100.00
43364;BME280;40636;52.424;-1.948;2022-07-01T00:57:21;99671.19;;;12.82;100.00
43364;BME280;40636;52.424;-1.948;2022-07-01T00:59:48;99667.88;;;12.80;100.00
43364;BME280;40636;52.424;-1.948;2022-07-01T01:02:15;99681.09;;;12.78;100.00
43364;BME280;40636;52.424;-1.948;2022-07-01T01:04:42;99677.25;;;12.79;100.00
43364;BME280;40636;52.424;-1.948;2022-07-01T01:07:09;99670.91;;;12.78;100.00
43364;BME280;40636;52.424;-1.948;2022-07-01T01:09:36;99672.53;;;12.74;100.00
43364;BME280;40636;52.424;-1.948;2022-07-01T01:12:03;99673.66;;;12.73;100.00
43364;BME280;40636;52.424;-1.948;2022-07-01T01:14:48;99671.72;;;12.74;100.00
43364;BME280;40636;52.424;-1.948;2022-07-01T01:17:16;99669.22;;;12.67;100.00
43364;BME280;40636;52.424;-1.948;2022-07-01T01:19:44;99668.13;;;12.68;100.00
43364;BME280;40636;52.424;-1.948;2022-07-01T01:22:14;99669.50;;;12.65;100.00
43364;BME280;40636;52.424;-1.948;2022-07-01T01:24:42;99672.25;;;12.65;100.00
43364;BME280;40636;52.424;-1.948;2022-07-01T01:27:10;99672.53;;;12.69;100.00
43364;BME280;40636;52.424;-1.948;2022-07-01T01:29:38;99673.91;;;12.66;100.00
43364;BME280;40636;52.424;-1.948;2022-07-01T01:32:06;99675.28;;;12.64;100.00
43364;BME280;40636;52.424;-1.948;2022-07-01T01:34:35;99675.00;;;12.65;100.00
43364;BME280;40636;52.424;-1.948;2022-07-01T01:37:07;99670.59;;;12.64;100.00
43364;BME280;40636;52.424;-1.948;2022-07-01T01:39:34;99674.72;;;12.62;100.00
43364;BME280;40636;52.424;-1.948;2022-07-01T01:42:05;99675.53;;;12.57;100.00
43364;BME280;40636;52.424;-1.948;2022-07-01T01:44:32;99673.03;;;12.56;100.00
43364;BME280;40636;52.424;-1.948;2022-07-01T01:47:00;99676.31;;;12.42;100.00
43364;BME280;40636;52.424;-1.948;2022-07-01T01:49:27;99680.13;;;12.31;100.00
43364;BME280;40636;52.424;-1.948;2022-07-01T01:51:56;99672.09;;;12.25;100.00
43364;BME280;40636;52.424;-1.948;2022-07-01T01:54:24;99679.81;;;12.23;100.00
43364;BME280;40636;52.424;-1.948;2022-07-01T01:56:51;99680.59;;;12.13;100.00
43364;BME280;40636;52.424;-1.948;2022-07-01T01:59:18;99679.47;;;12.09;100.00
43364;BME280;40636;52.424;-1.948;2022-07-01T02:01:45;99676.13;;;12.02;100.00
43364;BME280;40636;52.424;-1.948;2022-07-01T02:04:12;99679.38;;;11.99;100.00
43364;BME280;40636;52.424;-1.948;2022-07-01T02:06:39;99678.22;;;11.89;100.00
43364;BME280;40636;52.424;-1.948;2022-07-01T02:09:09;99678.47;;;11.83;100.00
43364;BME280;40636;52.424;-1.948;2022-07-01T02:11:35;99672.94;;;11.78;100.00
43364;BME280;40636;52.424;-1.948;2022-07-01T02:14:02;99675.63;;;11.67;100.00
43364;BME280;40636;52.424;-1.948;2022-07-01T02:16:29;99678.84;;;11.59;100.00
43364;BME280;40636;52.424;-1.948;2022-07-01T02:18:56;99678.22;;;11.52;100.00
43364;BME280;40636;52.424;-1.948;2022-07-01T02:21:23;99677.38;;;11.47;100.00
43364;BME280;40636;52.424;-1.948;2022-07-01T02:23:50;99680.91;;;11.42;100.00
43364;BME280;40636;52.424;-1.948;2022-07-01T02:26:18;99679.44;;;11.29;100.00
43364;BME280;40636;52.424;-1.948;2022-07-01T02:28:45;99679.69;;;11.28;100.00
43364;BME280;40636;52.424;-1.948;2022-07-01T02:31:12;99688.13;;;11.21;100.00
43364;BME280;40636;52.424;-1.948;2022-07-01T02:33:39;99682.91;;;11.20;100.00
43364;BME280;40636;52.424;-1.948;2022-07-01T02:36:06;99687.75;;;11.07;100.00
43364;BME280;40636;52.424;-1.948;2022-07-01T02:38:33;99686.38;;;11.05;100.00
43364;BME280;40636;52.424;-1.948;2022-07-01T02:41:00;99687.19;;;11.05;100.00
43364;BME280;40636;52.424;-1.948;2022-07-01T02:43:27;99685.53;;;11.04;100.00
43364;BME280;40636;52.424;-1.948;2022-07-01T02:45:56;99691.75;;;10.95;100.00
43364;BME280;40636;52.424;-1.948;2022-07-01T02:48:23;99687.34;;;10.93;100.00
43364;BME280;40636;52.424;-1.948;2022-07-01T02:50:50;99681.59;;;10.95;100.00
43364;BME280;40636;52.424;-1.948;2022-07-01T02:53:17;99686.38;;;11.05;100.00
43364;BME280;40636;52.424;-1.948;2022-07-01T02:55:44;99686.13;;;11.11;100.00
43364;BME280;40636;52.424;-1.948;2022-07-01T02:58:11;99697.13;;;11.11;100.00
43364;BME280;40636;52.424;-1.948;2022-07-01T03:00:38;99697.44;;;11.15;100.00
43364;BME280;40636;52.424;-1.948;2022-07-01T03:03:05;99700.50;;;11.18;100.00
43364;BME280;40636;52.424;-1.948;2022-07-01T03:05:32;99699.13;;;11.21;100.00
43364;BME280;40636;52.424;-1.948;2022-07-01T03:07:58;99700.81;;;11.22;100.00
43364;BME280;40636;52.424;-1.948;2022-07-01T03:10:25;99708.81;;;11.29;100.00
43364;BME280;40636;52.424;-1.948;2022-07-01T03:12:53;99708.31;;;11.32;100.00
43364;BME280;40636;52.424;-1.948;2022-07-01T03:15:20;99715.44;;;11.33;100.00
43364;BME280;40636;52.424;-1.948;2022-07-01T03:17:47;99703.09;;;11.35;100.00
43364;BME280;40636;52.424;-1.948;2022-07-01T03:20:17;99710.59;;;11.40;100.00
43364;BME280;40636;52.424;-1.948;2022-07-01T03:22:45;99709.22;;;11.42;100.00
43364;BME280;40636;52.424;-1.948;2022-07-01T03:25:12;99706.50;;;11.48;100.00
43364;BME280;40636;52.424;-1.948;2022-07-01T03:27:39;99721.06;;;11.48;100.00
43364;BME280;40636;52.424;-1.948;2022-07-01T03:30:12;99718.91;;;11.50;100.00
43364;BME280;40636;52.424;-1.948;2022-07-01T03:32:40;99720.00;;;11.49;100.00
43364;BME280;40636;52.424;-1.948;2022-07-01T03:35:08;99723.81;;;11.48;100.00
43364;BME280;40636;52.424;-1.948;2022-07-01T03:37:55;99726.59;;;11.53;100.00
43364;BME280;40636;52.424;-1.948;2022-07-01T03:40:22;99726.91;;;11.57;100.00
43364;BME280;40636;52.424;-1.948;2022-07-01T03:42:49;99725.25;;;11.56;100.00
43364;BME280;40636;52.424;-1.948;2022-07-01T03:45:15;99727.75;;;11.57;100.00
43364;BME280;40636;52.424;-1.948;2022-07-01T03:47:49;99730.25;;;11.59;100.00
43364;BME280;40636;52.424;-1.948;2022-07-01T03:50:17;99726.91;;;11.57;100.00
43364;BME280;40636;52.424;-1.948;2022-07-01T03:52:44;99728.31;;;11.59;100.00
43364;BME280;40636;52.424;-1.948;2022-07-01T03:55:12;99725.25;;;11.56;100.00
43364;BME280;40636;52.424;-1.948;2022-07-01T03:57:39;99728.84;;;11.56;100.00
43364;BME280;40636;52.424;-1.948;2022-07-01T04:00:07;99737.66;;;11.58;100.00
43364;BME280;40636;52.424;-1.948;2022-07-01T04:02:34;99737.69;;;11.63;100.00
43364;BME280;40636;52.424;-1.948;2022-07-01T04:05:01;99738.72;;;11.57;100.00
43364;BME280;40636;52.424;-1.948;2022-07-01T04:07:28;99735.75;;;11.59;100.00
43364;BME280;40636;52.424;-1.948;2022-07-01T04:09:55;99742.06;;;11.59;100.00
43364;BME280;40636;52.424;-1.948;2022-07-01T04:12:22;99743.97;;;11.59;100.00
43364;BME280;40636;52.424;-1.948;2022-07-01T04:14:49;99739.78;;;11.51;100.00
43364;BME280;40636;52.424;-1.948;2022-07-01T04:17:16;99739.28;;;11.54;100.00
43364;BME280;40636;52.424;-1.948;2022-07-01T04:19:43;99743.09;;;11.53;100.00
43364;BME280;40636;52.424;-1.948;2022-07-01T04:22:10;99747.81;;;11.58;100.00
43364;BME280;40636;52.424;-1.948;2022-07-01T04:24:55;99752.50;;;11.62;100.00
43364;BME280;40636;52.424;-1.948;2022-07-01T04:27:22;99755.81;;;11.59;100.00
43364;BME280;40636;52.424;-1.948;2022-07-01T04:29:49;99759.56;;;11.53;100.00
43364;BME280;40636;52.424;-1.948;2022-07-01T04:32:15;99761.25;;;11.54;100.00
43364;BME280;40636;52.424;-1.948;2022-07-01T04:34:42;99770.06;;;11.56;100.00
43364;BME280;40636;52.424;-1.948;2022-07-01T04:37:09;99768.72;;;11.59;100.00
43364;BME280;40636;52.424;-1.948;2022-07-01T04:39:36;99762.41;;;11.58;100.00
43364;BME280;40636;52.424;-1.948;2022-07-01T04:42:03;99762.41;;;11.58;100.00
43364;BME280;40636;52.424;-1.948;2022-07-01T04:44:36;99774.25;;;11.64;100.00
43364;BME280;40636;52.424;-1.948;2022-07-01T04:47:09;99775.34;;;11.63;100.00
43364;BME280;40636;52.424;-1.948;2022-07-01T04:49:36;99787.75;;;11.71;100.00
43364;BME280;40636;52.424;-1.948;2022-07-01T04:52:03;99782.53;;;11.69;100.00
43364;BME280;40636;52.424;-1.948;2022-07-01T04:54:30;99775.13;;;11.69;100.00
43364;BME280;40636;52.424;-1.948;2022-07-01T04:56:57;99775.69;;;11.72;100.00
43364;BME280;40636;52.424;-1.948;2022-07-01T04:59:24;99779.00;;;11.74;100.00
43364;BME280;40636;52.424;-1.948;2022-07-01T05:01:50;99777.91;;;11.75;100.00
43364;BME280;40636;52.424;-1.948;2022-07-01T05:04:18;99775.53;;;11.83;100.00
43364;BME280;40636;52.424;-1.948;2022-07-01T05:06:46;99782.44;;;11.86;100.00
43364;BME280;40636;52.424;-1.948;2022-07-01T05:09:13;99788.50;;;11.88;100.00
43364;BME280;40636;52.424;-1.948;2022-07-01T05:11:40;99786.34;;;11.90;100.00
43364;BME280;40636;52.424;-1.948;2022-07-01T05:14:08;99783.59;;;11.90;100.00
43364;BME280;40636;52.424;-1.948;2022-07-01T05:16:35;99786.91;;;11.97;100.00
43364;BME280;40636;52.424;-1.948;2022-07-01T05:19:04;99789.47;;;12.04;100.00
43364;BME280;40636;52.424;-1.948;2022-07-01T05:21:49;99778.72;;;12.07;100.00
43364;BME280;40636;52.424;-1.948;2022-07-01T05:24:24;99788.13;;;12.11;100.00
43364;BME280;40636;52.424;-1.948;2022-07-01T05:26:51;99784.34;;;12.23;100.00
43364;BME280;40636;52.424;-1.948;2022-07-01T05:29:18;99787.34;;;12.21;100.00
43364;BME280;40636;52.424;-1.948;2022-07-01T05:31:44;99792.56;;;12.17;100.00
43364;BME280;40636;52.424;-1.948;2022-07-01T05:34:11;99795.88;;;12.19;100.00
43364;BME280;40636;52.424;-1.948;2022-07-01T05:36:38;99788.22;;;12.27;100.00
43364;BME280;40636;52.424;-1.948;2022-07-01T05:39:05;99791.00;;;12.32;100.00
43364;BME280;40636;52.424;-1.948;2022-07-01T05:41:32;99789.38;;;12.36;100.00
43364;BME280;40636;52.424;-1.948;2022-07-01T05:44:01;99785.84;;;12.40;100.00
43364;BME280;40636;52.424;-1.948;2022-07-01T05:46:28;99786.97;;;12.44;100.00
43364;BME280;40636;52.424;-1.948;2022-07-01T05:48:55;99781.19;;;12.46;100.00
43364;BME280;40636;52.424;-1.948;2022-07-01T05:51:22;99786.69;;;12.46;100.00
43364;BME280;40636;52.424;-1.948;2022-07-01T05:53:49;99787.81;;;12.50;100.00
43364;BME280;40636;52.424;-1.948;2022-07-01T05:56:16;99782.31;;;12.55;100.00
43364;BME280;40636;52.424;-1.948;2022-07-01T05:58:42;99779.28;;;12.57;100.00
43364;BME280;40636;52.424;-1.948;2022-07-01T06:01:09;99778.47;;;12.56;100.00
43364;BME280;40636;52.424;-1.948;2022-07-01T06:03:36;99779.88;;;12.59;100.00
43364;BME280;40636;52.424;-1.948;2022-07-01T06:06:04;99772.75;;;12.68;100.00
43364;BME280;40636;52.424;-1.948;2022-07-01T06:08:32;99777.44;;;12.67;100.00
43364;BME280;40636;52.424;-1.948;2022-07-01T06:11:00;99780.44;;;12.66;100.00
43364;BME280;40636;52.424;-1.948;2022-07-01T06:13:27;99773.59;;;12.74;100.00
43364;BME280;40636;52.424;-1.948;2022-07-01T06:15:55;99778.00;;;12.75;100.00
43364;BME280;40636;52.424;-1.948;2022-07-01T06:18:25;99778.25;;;12.68;100.00
43364;BME280;40636;52.424;-1.948;2022-07-01T06:20:52;99779.13;;;12.79;100.00
43364;BME280;40636;52.424;-1.948;2022-07-01T06:23:19;99787.91;;;12.76;100.00
43364;BME280;40636;52.424;-1.948;2022-07-01T06:25:46;99784.09;;;12.77;100.00
43364;BME280;40636;52.424;-1.948;2022-07-01T06:28:13;99796.75;;;12.78;100.00
43364;BME280;40636;52.424;-1.948;2022-07-01T06:30:40;99806.38;;;12.80;100.00
43364;BME280;40636;52.424;-1.948;2022-07-01T06:33:11;99797.38;;;12.90;100.00
43364;BME280;40636;52.424;-1.948;2022-07-01T06:35:39;99805.34;;;12.97;100.00
43364;BME280;40636;52.424;-1.948;2022-07-01T06:38:07;99794.88;;;12.99;100.00
43364;BME280;40636;52.424;-1.948;2022-07-01T06:40:33;99799.34;;;13.05;100.00
43364;BME280;40636;52.424;-1.948;2022-07-01T06:43:00;99800.69;;;13.07;100.00
43364;BME280;40636;52.424;-1.948;2022-07-01T06:45:27;99794.47;;;13.22;100.00
43364;BME280;40636;52.424;-1.948;2022-07-01T06:47:54;99806.31;;;13.28;100.00
43364;BME280;40636;52.424;-1.948;2022-07-01T06:50:21;99800.28;;;13.36;100.00
43364;BME280;40636;52.424;-1.948;2022-07-01T06:52:48;99809.06;;;13.28;100.00
43364;BME280;40636;52.424;-1.948;2022-07-01T06:55:15;99808.84;;;13.44;100.00
43364;BME280;40636;52.424;-1.948;2022-07-01T06:57:42;99807.44;;;13.42;100.00
43364;BME280;40636;52.424;-1.948;2022-07-01T07:00:10;99813.50;;;13.39;100.00
43364;BME280;40636;52.424;-1.948;2022-07-01T07:02:36;99812.69;;;13.43;100.00
43364;BME280;40636;52.424;-1.948;2022-07-01T07:05:04;99823.47;;;13.55;100.00
43364;BME280;40636;52.424;-1.948;2022-07-01T07:07:31;99812.97;;;13.52;100.00
43364;BME280;40636;52.424;-1.948;2022-07-01T07:09:58;99825.09;;;13.56;100.00
43364;BME280;40636;52.424;-1.948;2022-07-01T07:12:26;99818.50;;;13.62;99.33
43364;BME280;40636;52.424;-1.948;2022-07-01T07:14:53;99815.19;;;13.65;99.81
43364;BME280;40636;52.424;-1.948;2022-07-01T07:17:20;99812.16;;;13.62;99.54
43364;BME280;40636;52.424;-1.948;2022-07-01T07:19:47;99811.06;;;13.68;99.74
43364;BME280;40636;52.424;-1.948;2022-07-01T07:22:14;99813.00;;;13.78;99.81
43364;BME280;40636;52.424;-1.948;2022-07-01T07:24:41;99814.66;;;13.89;99.58
43364;BME280;40636;52.424;-1.948;2022-07-01T07:27:08;99822.66;;;14.11;100.00
43364;BME280;40636;52.424;-1.948;2022-07-01T07:29:35;99817.66;;;14.33;98.30
43364;BME280;40636;52.424;-1.948;2022-07-01T07:32:02;99821.81;;;14.51;97.09
43364;BME280;40636;52.424;-1.948;2022-07-01T07:34:29;99824.25;;;14.58;95.54
43364;BME280;40636;52.424;-1.948;2022-07-01T07:36:56;99818.47;;;14.59;94.79
43364;BME280;40636;52.424;-1.948;2022-07-01T07:39:23;99818.97;;;14.71;94.19
43364;BME280;40636;52.424;-1.948;2022-07-01T07:41:56;99822.81;;;14.76;94.32
43364;BME280;40636;52.424;-1.948;2022-07-01T07:44:24;99825.56;;;14.91;92.35
43364;BME280;40636;52.424;-1.948;2022-07-01T07:46:51;99822.16;;;15.09;94.71
43364;BME280;40636;52.424;-1.948;2022-07-01T07:49:18;99815.41;;;15.26;92.16
43364;BME280;40636;52.424;-1.948;2022-07-01T07:51:45;99810.75;;;15.26;90.29
43364;BME280;40636;52.424;-1.948;2022-07-01T07:54:12;99814.34;;;15.27;93.07
43364;BME280;40636;52.424;-1.948;2022-07-01T07:56:39;99810.09;;;15.44;92.04
43364;BME280;40636;52.424;-1.948;2022-07-01T07:59:11;99807.19;;;15.60;90.67
43364;BME280;40636;52.424;-1.948;2022-07-01T08:01:41;99808.22;;;15.74;90.39
43364;BME280;40636;52.424;-1.948;2022-07-01T08:04:08;99817.75;;;15.97;90.71
43364;BME280;40636;52.424;-1.948;2022-07-01T08:06:35;99813.56;;;16.00;89.44
43364;BME280;40636;52.424;-1.948;2022-07-01T08:09:03;99815.28;;;16.24;89.40
43364;BME280;40636;52.424;-1.948;2022-07-01T08:11:30;99809.09;;;16.33;87.53
43364;BME280;40636;52.424;-1.948;2022-07-01T08:13:57;99819.66;;;16.31;85.43
43364;BME280;40636;52.424;-1.948;2022-07-01T08:16:24;99814.31;;;16.10;85.70
43364;BME280;40636;52.424;-1.948;2022-07-01T08:18:51;99810.72;;;16.10;84.91
43364;BME280;40636;52.424;-1.948;2022-07-01T08:21:18;99810.22;;;16.32;85.61
43364;BME280;40636;52.424;-1.948;2022-07-01T08:23:45;99810.84;;;16.82;83.85
43364;BME280;40636;52.424;-1.948;2022-07-01T08:26:12;99813.22;;;16.88;82.31
43364;BME280;40636;52.424;-1.948;2022-07-01T08:28:42;99816.44;;;16.77;83.21
43364;BME280;40636;52.424;-1.948;2022-07-01T08:31:09;99826.53;;;16.62;83.79
43364;BME280;40636;52.424;-1.948;2022-07-01T08:33:36;99826.56;;;16.57;82.24
43364;BME280;40636;52.424;-1.948;2022-07-01T08:36:09;99831.09;;;16.48;84.79
43364;BME280;40636;52.424;-1.948;2022-07-01T08:38:37;99830.19;;;16.29;84.32
43364;BME280;40636;52.424;-1.948;2022-07-01T08:41:04;99829.81;;;16.40;82.34
43364;BME280;40636;52.424;-1.948;2022-07-01T08:43:31;99830.47;;;16.56;82.93
43364;BME280;40636;52.424;-1.948;2022-07-01T08:45:59;99831.38;;;16.76;82.99
43364;BME280;40636;52.424;-1.948;2022-07-01T08:48:30;99831.81;;;16.88;82.80
43364;BME280;40636;52.424;-1.948;2022-07-01T08:50:57;99832.28;;;16.95;83.36
43364;BME280;40636;52.424;-1.948;2022-07-01T08:53:24;99835.88;;;16.95;80.78
43364;BME280;40636;52.424;-1.948;2022-07-01T08:55:52;99832.13;;;16.86;78.92
43364;BME280;40636;52.424;-1.948;2022-07-01T08:58:38;99834.47;;;16.98;81.94
43364;BME280;40636;52.424;-1.948;2022-07-01T09:01:31;99836.94;;;17.42;79.73
43364;BME280;40636;52.424;-1.948;2022-07-01T09:04:14;99835.84;;;17.62;79.83
43364;BME280;40636;52.424;-1.948;2022-07-01T09:06:41;99838.59;;;17.62;81.41
43364;BME280;40636;52.424;-1.948;2022-07-01T09:09:18;99842.56;;;17.56;79.37
43364;BME280;40636;52.424;-1.948;2022-07-01T09:11:48;99843.03;;;17.63;77.40
43364;BME280;40636;52.424;-1.948;2022-07-01T09:14:26;99841.22;;;17.54;78.57
43364;BME280;40636;52.424;-1.948;2022-07-01T09:16:56;99844.59;;;17.50;79.47
43364;BME280;40636;52.424;-1.948;2022-07-01T09:19:26;99841.22;;;17.54;80.65
43364;BME280;40636;52.424;-1.948;2022-07-01T09:21:56;99845.22;;;17.85;78.50
43364;BME280;40636;52.424;-1.948;2022-07-01T09:24:24;99852.78;;;17.80;78.85
43364;BME280;40636;52.424;-1.948;2022-07-01T09:29:29;99846.53;;;17.69;77.52
43364;BME280;40636;52.424;-1.948;2022-07-01T09:31:59;99844.16;;;18.00;76.20
43364;BME280;40636;52.424;-1.948;2022-07-01T09:34:26;99835.47;;;18.20;77.80
43364;BME280;40636;52.424;-1.948;2022-07-01T09:36:57;99849.25;;;18.58;77.46
43364;BME280;40636;52.424;-1.948;2022-07-01T09:39:24;99839.88;;;18.40;74.70
43364;BME280;40636;52.424;-1.948;2022-07-01T09:42:06;99838.44;;;18.57;75.07
43364;BME280;40636;52.424;-1.948;2022-07-01T09:44:35;99839.41;;;18.33;75.11
43364;BME280;40636;52.424;-1.948;2022-07-01T09:47:03;99849.81;;;18.74;75.27
43364;BME280;40636;52.424;-1.948;2022-07-01T09:49:32;99845.81;;;18.94;71.73
43364;BME280;40636;52.424;-1.948;2022-07-01T09:52:01;99841.69;;;19.05;69.79
43364;BME280;40636;52.424;-1.948;2022-07-01T09:54:30;99843.53;;;19.23;69.07
43364;BME280;40636;52.424;-1.948;2022-07-01T09:56:58;99851.03;;;19.37;69.50
43364;BME280;40636;52.424;-1.948;2022-07-01T09:59:27;99858.47;;;19.41;68.63
43364;BME280;40636;52.424;-1.948;2022-07-01T10:01:55;99860.41;;;19.41;68.46
43364;BME280;40636;52.424;-1.948;2022-07-01T10:04:31;99854.66;;;19.23;70.82
43364;BME280;40636;52.424;-1.948;2022-07-01T10:10:06;99861.78;;;19.02;71.25
43364;BME280;40636;52.424;-1.948;2022-07-01T10:12:39;99861.03;;;19.38;68.21
43364;BME280;40636;52.424;-1.948;2022-07-01T10:15:09;99853.53;;;19.24;69.47
43364;BME280;40636;52.424;-1.948;2022-07-01T10:17:42;99853.50;;;19.38;67.08
43364;BME280;40636;52.424;-1.948;2022-07-01T10:20:15;99858.88;;;19.07;65.97
43364;BME280;40636;52.424;-1.948;2022-07-01T10:22:49;99862.94;;;18.55;69.91
43364;BME280;40636;52.424;-1.948;2022-07-01T10:25:51;99864.03;;;18.40;72.11
43364;BME280;40636;52.424;-1.948;2022-07-01T10:31:00;99850.53;;;18.33;68.63
43364;BME280;40636;52.424;-1.948;2022-07-01T10:36:32;99860.41;;;18.07;68.79
43364;BME280;40636;52.424;-1.948;2022-07-01T10:41:57;99861.31;;;18.67;69.03
43364;BME280;40636;52.424;-1.948;2022-07-01T10:47:45;99869.59;;;18.72;66.97
43364;BME280;40636;52.424;-1.948;2022-07-01T10:50:14;99871.44;;;18.31;68.50
43364;BME280;40636;52.424;-1.948;2022-07-01T10:53:03;99872.66;;;18.06;71.11
43364;BME280;40636;52.424;-1.948;2022-07-01T10:55:56;99873.84;;;17.62;71.98
43364;BME280;40636;52.424;-1.948;2022-07-01T10:58:37;99883.59;;;17.40;74.26
43364;BME280;40636;52.424;-1.948;2022-07-01T11:01:05;99879.19;;;17.34;74.87
43364;BME280;40636;52.424;-1.948;2022-07-01T11:03:36;99885.00;;;17.38;73.35
43364;BME280;40636;52.424;-1.948;2022-07-01T11:06:07;99880.16;;;17.24;75.92
43364;BME280;40636;52.424;-1.948;2022-07-01T11:08:34;99885.63;;;17.30;77.23
43364;BME280;40636;52.424;-1.948;2022-07-01T11:11:02;99892.16;;;16.96;82.00
43364;BME280;40636;52.424;-1.948;2022-07-01T11:13:32;99887.38;;;16.78;81.92
43364;BME280;40636;52.424;-1.948;2022-07-01T11:16:01;99902.09;;;16.73;85.51
43364;BME280;40636;52.424;-1.948;2022-07-01T11:18:29;99902.81;;;16.55;83.80
43364;BME280;40636;52.424;-1.948;2022-07-01T11:21:05;99926.59;;;16.27;83.43
43364;BME280;40636;52.424;-1.948;2022-07-01T11:23:32;99918.69;;;15.55;86.18
43364;BME280;40636;52.424;-1.948;2022-07-01T11:26:05;99910.00;;;15.12;83.31
43364;BME280;40636;52.424;-1.948;2022-07-01T11:28:39;99894.84;;;15.10;88.79
43364;BME280;40636;52.424;-1.948;2022-07-01T11:31:06;99895.09;;;15.13;94.33
43364;BME280;40636;52.424;-1.948;2022-07-01T11:33:32;99898.25;;;15.51;91.35
43364;BME280;40636;52.424;-1.948;2022-07-01T11:35:59;99901.28;;;16.04;92.35
43364;BME280;40636;52.424;-1.948;2022-07-01T11:38:45;99898.97;;;16.51;89.63
43364;BME280;40636;52.424;-1.948;2022-07-01T11:41:30;99894.94;;;16.96;89.59
43364;BME280;40636;52.424;-1.948;2022-07-01T11:43:57;99909.78;;;17.05;87.56
43364;BME280;40636;52.424;-1.948;2022-07-01T11:46:24;99892.75;;;17.17;87.23
43364;BME280;40636;52.424;-1.948;2022-07-01T11:48:52;99896.81;;;17.24;91.92
43364;BME280;40636;52.424;-1.948;2022-07-01T11:51:22;99893.63;;;17.36;89.17
43364;BME280;40636;52.424;-1.948;2022-07-01T11:53:52;99885.56;;;17.35;89.79
43364;BME280;40636;52.424;-1.948;2022-07-01T11:56:34;99892.00;;;17.30;87.76
43364;BME280;40636;52.424;-1.948;2022-07-01T11:59:03;99897.63;;;17.01;86.30
43364;BME280;40636;52.424;-1.948;2022-07-01T12:01:35;99895.50;;;16.93;87.47
43364;BME280;40636;52.424;-1.948;2022-07-01T12:04:07;99901.91;;;17.17;86.84
43364;BME280;40636;52.424;-1.948;2022-07-01T12:06:35;99899.50;;;17.30;87.38
43364;BME280;40636;52.424;-1.948;2022-07-01T12:09:13;99890.19;;;17.20;84.38
43364;BME280;40636;52.424;-1.948;2022-07-01T12:11:44;99893.69;;;17.31;83.29
43364;BME280;40636;52.424;-1.948;2022-07-01T12:14:22;99893.00;;;17.39;79.51
43364;BME280;40636;52.424;-1.948;2022-07-01T12:16:54;99889.53;;;17.71;82.31
43364;BME280;40636;52.424;-1.948;2022-07-01T12:19:28;99891.44;;;17.95;78.88
43364;BME280;40636;52.424;-1.948;2022-07-01T12:21:57;99890.59;;;18.13;80.08
43364;BME280;40636;52.424;-1.948;2022-07-01T12:24:25;99887.56;;;18.29;75.29
43364;BME280;40636;52.424;-1.948;2022-07-01T12:27:03;99892.47;;;18.18;77.00
43364;BME280;40636;52.424;-1.948;2022-07-01T12:32:13;99899.34;;;17.45;77.02
43364;BME280;40636;52.424;-1.948;2022-07-01T12:39:51;99900.59;;;16.86;80.05
43364;BME280;40636;52.424;-1.948;2022-07-01T12:42:33;99888.50;;;16.77;78.60
43364;BME280;40636;52.424;-1.948;2022-07-01T12:45:04;99893.34;;;16.90;82.05
43364;BME280;40636;52.424;-1.948;2022-07-01T12:47:42;99892.50;;;17.13;77.09
43364;BME280;40636;52.424;-1.948;2022-07-01T12:50:23;99891.53;;;17.47;81.72
43364;BME280;40636;52.424;-1.948;2022-07-01T12:53:04;99877.75;;;17.98;76.10
43364;BME280;40636;52.424;-1.948;2022-07-01T12:55:36;99875.66;;;18.42;74.95
43364;BME280;40636;52.424;-1.948;2022-07-01T12:58:09;99875.69;;;18.88;69.91
43364;BME280;40636;52.424;-1.948;2022-07-01T13:00:38;99866.13;;;18.94;66.83
43364;BME280;40636;52.424;-1.948;2022-07-01T13:03:06;99864.97;;;18.95;70.03
43364;BME280;40636;52.424;-1.948;2022-07-01T13:05:35;99858.69;;;18.90;69.82
43364;BME280;40636;52.424;-1.948;2022-07-01T13:08:03;99858.78;;;18.38;65.06
43364;BME280;40636;52.424;-1.948;2022-07-01T13:10:30;99860.81;;;18.33;69.56
43364;BME280;40636;52.424;-1.948;2022-07-01T13:12:57;99853.03;;;18.48;71.87
43364;BME280;40636;52.424;-1.948;2022-07-01T13:15:25;99852.94;;;18.40;70.28
43364;BME280;40636;52.424;-1.948;2022-07-01T13:17:52;99857.34;;;18.73;69.63
43364;BME280;40636;52.424;-1.948;2022-07-01T13:20:19;99850.44;;;18.85;70.07